首页
METAR-TAF:

METAR-TAF

机场 :

纳塔尔, 北里约格朗德, 巴西

纬度: 05-46-05S, 经度: 035-22-34W, 海拔: 88米

当前天气观测

该预报发布于33分钟前的23:00 UTC
风速6节,风向
温度 27°C
湿度 84%
气压 1013 hPa
能见度10公里或以上
1500米以下无云,无积雨云

METAR: SBSG 072300Z 17006KT CAVOK 27/24 Q1013

时间: 20:33 (23:33 UTC)

预报

该预报发布于8小时和33分钟前的15:00 UTC
预报有效从07日的 18点(UTC)到 08日的 18点(UTC)
风速10节,风向南转南东
能见度10公里或以上
散云层高于3000英尺
少量云层高于3500英尺, 塔状积云.
成为
从 07日的 22点(UTC)到 07日的 24点(UTC)
风速5节,风向
少量云层高于2000英尺
成为
从 08日的 04点(UTC)到 08日的 06点(UTC)
风速5节,风向西转西南
成为
从 08日的 10点(UTC)到 08日的 12点(UTC)
风速5节,风向
多云层高于2000英尺
少量云层高于2500英尺, 塔状积云.
成为
从 08日的 14点(UTC)到 08日的 16点(UTC)
风速8节,风向南转南东
散云层高于3000英尺

TAF: SBSG 071500Z 0718/0818 16010KT 9999 SCT030 FEW035TCU TN25/0805Z TX33/0816Z BECMG 0722/0724 19005KT FEW020 BECMG 0804/0806 25005KT BECMG 0810/0812 18005KT BKN020 FEW025TCU BECMG 0814/0816 15008KT SCT030 RMK PEH

超过4000个机场的气象观测和天气预报(METAR&TAF报告)。

可查询的气象台以黄色和红色小点在地图上表示。

将鼠标移到小点上方,可查看气象台名称。

然后点击查看天气观测和预报。

如需切换地图:点击带黑十字的绿色按钮放大地图;点击带横线的绿色按钮缩小地图;或者点击绿色箭头查看邻近地区的地图。


METAR-TAF: